createdAt,value
2022-10-29T00:00:28.437Z,7.72
2022-10-29T00:01:31.052Z,8.18
2022-10-29T00:02:33.620Z,8.00
2022-10-29T00:03:36.912Z,7.35
2022-10-29T00:04:40.126Z,6.90
2022-10-29T00:05:42.558Z,8.10
2022-10-29T00:06:45.250Z,7.70
2022-10-29T00:07:47.627Z,7.35
2022-10-29T00:08:50.075Z,7.45
2022-10-29T00:09:52.512Z,6.88
2022-10-29T00:10:56.223Z,7.43
2022-10-29T00:11:58.657Z,8.18
2022-10-29T00:13:02.541Z,7.00
2022-10-29T00:14:05.127Z,7.45
2022-10-29T00:15:08.042Z,7.43
2022-10-29T00:16:13.230Z,7.93
2022-10-29T00:17:15.958Z,7.85
2022-10-29T00:18:18.528Z,7.82
2022-10-29T00:19:20.942Z,8.10
2022-10-29T00:20:24.082Z,7.43
2022-10-29T00:21:26.856Z,7.25
2022-10-29T00:22:29.454Z,8.05
2022-10-29T00:23:32.334Z,6.82
2022-10-29T00:24:35.024Z,8.23
2022-10-29T00:25:37.635Z,7.43
2022-10-29T00:26:40.014Z,7.90
2022-10-29T00:27:42.447Z,8.15
2022-10-29T00:28:45.153Z,7.93
2022-10-29T00:29:47.730Z,7.45
2022-10-29T00:30:50.231Z,7.55
2022-10-29T00:31:52.808Z,8.05
2022-10-29T00:32:56.016Z,6.85
2022-10-29T00:33:58.730Z,7.90
2022-10-29T00:35:01.730Z,7.40
2022-10-29T00:36:10.852Z,7.22
2022-10-29T00:37:13.325Z,7.60
2022-10-29T00:38:15.940Z,7.38
2022-10-29T00:39:18.461Z,7.70
2022-10-29T00:40:21.003Z,7.63
2022-10-29T00:41:27.172Z,8.57
2022-10-29T00:42:29.723Z,7.80
2022-10-29T00:43:37.389Z,7.88
2022-10-29T00:44:40.973Z,8.77
2022-10-29T00:45:47.964Z,8.25
2022-10-29T00:47:10.602Z,8.15
2022-10-29T00:48:13.252Z,8.85
2022-10-29T00:49:16.405Z,8.23
2022-10-29T00:50:19.688Z,8.25
2022-10-29T00:51:22.854Z,7.85
2022-10-29T00:52:28.745Z,7.50
2022-10-29T00:53:34.412Z,7.55
2022-10-29T00:54:40.458Z,7.82
2022-10-29T00:55:43.048Z,7.18
2022-10-29T00:56:52.842Z,7.13
2022-10-29T00:57:55.970Z,8.48
2022-10-29T00:58:58.632Z,7.93
2022-10-29T01:00:01.270Z,8.18
2022-10-29T01:01:04.059Z,7.85
2022-10-29T01:02:06.629Z,7.20
2022-10-29T01:03:09.346Z,6.72
2022-10-29T01:04:12.267Z,7.18
2022-10-29T01:05:19.104Z,8.27
2022-10-29T01:06:23.016Z,7.45
2022-10-29T01:07:25.623Z,8.45
2022-10-29T01:08:28.434Z,7.38
2022-10-29T01:09:30.914Z,7.50
2022-10-29T01:10:44.397Z,8.55
2022-10-29T01:12:14.551Z,7.57
2022-10-29T01:13:33.191Z,7.65
2022-10-29T01:14:44.255Z,7.05
2022-10-29T01:16:05.984Z,8.60
2022-10-29T01:17:17.915Z,7.45
2022-10-29T01:18:24.225Z,7.00
2022-10-29T01:19:51.862Z,6.97
2022-10-29T01:21:16.315Z,7.00
2022-10-29T01:22:19.027Z,7.32
2022-10-29T01:23:54.416Z,7.25
2022-10-29T01:25:27.201Z,6.82
2022-10-29T01:26:51.092Z,7.35
2022-10-29T01:28:12.470Z,6.97
2022-10-29T01:29:43.530Z,7.95
2022-10-29T01:32:01.046Z,7.47
2022-10-29T01:33:17.383Z,6.93
2022-10-29T01:35:07.266Z,7.57
2022-10-29T01:36:24.583Z,6.85
2022-10-29T01:37:34.425Z,7.57
2022-10-29T01:38:52.550Z,8.00
2022-10-29T01:40:05.941Z,7.75
2022-10-29T01:41:15.189Z,8.30
2022-10-29T01:42:35.972Z,8.20
2022-10-29T01:44:52.346Z,7.85
2022-10-29T01:46:24.542Z,7.60
2022-10-29T01:47:31.116Z,7.85
2022-10-29T01:48:37.311Z,7.70
2022-10-29T01:49:42.710Z,7.00
2022-10-29T01:50:48.662Z,8.05
2022-10-29T01:51:52.270Z,7.82
2022-10-29T01:52:55.704Z,7.65
2022-10-29T01:53:59.597Z,7.30
2022-10-29T01:55:02.368Z,7.32
2022-10-29T01:56:05.085Z,6.80
2022-10-29T01:57:30.268Z,7.90
2022-10-29T01:58:34.716Z,6.82
2022-10-29T01:59:54.926Z,7.30
2022-10-29T02:01:38.586Z,7.05
2022-10-29T02:02:55.193Z,7.65
2022-10-29T02:04:34.411Z,7.40
2022-10-29T02:05:49.330Z,7.03
2022-10-29T02:07:20.775Z,7.05
2022-10-29T02:08:36.349Z,7.05
2022-10-29T02:09:52.379Z,8.07
2022-10-29T02:10:57.650Z,7.05
2022-10-29T02:12:10.856Z,6.82
2022-10-29T02:13:14.556Z,7.10
2022-10-29T02:14:41.180Z,7.85
2022-10-29T02:15:49.664Z,6.90
2022-10-29T02:16:52.923Z,7.45
2022-10-29T02:18:00.417Z,7.53
2022-10-29T02:19:02.998Z,7.30
2022-10-29T02:20:07.488Z,7.25
2022-10-29T02:21:10.008Z,7.20
2022-10-29T02:22:12.396Z,7.38
2022-10-29T02:23:15.365Z,8.10
2022-10-29T02:24:17.912Z,7.93
2022-10-29T02:25:20.618Z,6.95
2022-10-29T02:26:23.135Z,7.47
2022-10-29T02:27:25.678Z,7.72
2022-10-29T02:28:28.253Z,7.50
2022-10-29T02:29:30.741Z,7.57
2022-10-29T02:30:33.186Z,7.63
2022-10-29T02:31:36.342Z,7.60
2022-10-29T02:32:38.930Z,6.95
2022-10-29T02:33:41.434Z,7.35
2022-10-29T02:34:44.069Z,7.22
2022-10-29T02:35:46.552Z,7.03
2022-10-29T02:36:48.990Z,7.65
2022-10-29T02:37:51.611Z,6.63
2022-10-29T02:38:54.149Z,6.50
2022-10-29T02:39:56.709Z,7.03
2022-10-29T02:40:59.323Z,6.80
2022-10-29T02:42:01.789Z,6.97
2022-10-29T02:43:04.227Z,7.60
2022-10-29T02:44:06.691Z,7.65
2022-10-29T02:45:09.506Z,7.28
2022-10-29T02:46:13.709Z,7.10
2022-10-29T02:47:16.123Z,6.78
2022-10-29T02:48:18.597Z,7.05
2022-10-29T02:49:21.122Z,7.32
2022-10-29T02:50:23.592Z,6.85
2022-10-29T02:51:26.074Z,8.93
2022-10-29T02:52:28.530Z,7.45
2022-10-29T02:53:31.013Z,7.43
2022-10-29T02:54:33.522Z,7.20
2022-10-29T02:55:35.980Z,7.25
2022-10-29T02:56:38.422Z,7.05
2022-10-29T02:57:44.473Z,7.53
2022-10-29T02:58:47.071Z,7.45
2022-10-29T02:59:49.526Z,6.95
2022-10-29T03:00:52.724Z,7.45
2022-10-29T03:01:55.210Z,7.03
2022-10-29T03:02:58.291Z,7.00
2022-10-29T03:04:01.256Z,7.55
2022-10-29T03:05:04.098Z,7.35
2022-10-29T03:06:13.002Z,6.65
2022-10-29T03:07:15.514Z,7.05
2022-10-29T03:08:18.142Z,6.65
2022-10-29T03:09:20.733Z,6.35
2022-10-29T03:10:23.227Z,6.43
2022-10-29T03:11:25.879Z,7.15
2022-10-29T03:12:28.454Z,6.93
2022-10-29T03:13:30.965Z,6.28
2022-10-29T03:14:33.527Z,6.57
2022-10-29T03:15:36.399Z,7.00
2022-10-29T03:16:38.918Z,6.45
2022-10-29T03:17:41.390Z,6.63
2022-10-29T03:18:43.894Z,7.30
2022-10-29T03:19:46.313Z,6.97
2022-10-29T03:20:48.805Z,6.30
2022-10-29T03:21:51.257Z,6.18
2022-10-29T03:22:53.661Z,6.38
2022-10-29T03:23:56.310Z,6.72
2022-10-29T03:24:58.929Z,7.10
2022-10-29T03:26:01.681Z,7.25
2022-10-29T03:27:04.352Z,6.38
2022-10-29T03:28:06.917Z,7.50
2022-10-29T03:29:09.330Z,7.03
2022-10-29T03:30:13.471Z,6.32
2022-10-29T03:31:15.949Z,6.50
2022-10-29T03:32:18.439Z,6.20
2022-10-29T03:33:20.946Z,6.57
2022-10-29T03:34:23.589Z,6.22
2022-10-29T03:35:26.171Z,6.70
2022-10-29T03:36:28.703Z,6.70
2022-10-29T03:37:31.277Z,7.47
2022-10-29T03:38:34.157Z,7.18
2022-10-29T03:39:36.549Z,6.53
2022-10-29T03:40:39.248Z,7.07
2022-10-29T03:41:41.785Z,6.70
2022-10-29T03:42:44.409Z,6.70
2022-10-29T03:43:46.934Z,6.60
2022-10-29T03:44:49.487Z,6.40
2022-10-29T03:45:56.729Z,6.07
2022-10-29T03:46:59.736Z,5.95
2022-10-29T03:48:04.750Z,6.80
2022-10-29T03:49:07.169Z,6.22
2022-10-29T03:50:09.955Z,6.18
2022-10-29T03:51:12.405Z,6.00
2022-10-29T03:52:15.089Z,5.97
2022-10-29T03:53:17.540Z,6.85
2022-10-29T03:54:20.239Z,6.40
2022-10-29T03:55:22.688Z,6.05
2022-10-29T03:56:25.197Z,5.85
2022-10-29T03:57:27.871Z,5.70
2022-10-29T03:58:30.530Z,6.20
2022-10-29T03:59:33.012Z,6.03
2022-10-29T04:00:35.458Z,5.57
2022-10-29T04:01:37.953Z,6.15
2022-10-29T04:02:41.271Z,6.82
2022-10-29T04:03:44.078Z,5.70
2022-10-29T04:04:46.611Z,5.72
2022-10-29T04:05:49.248Z,5.80
2022-10-29T04:06:51.819Z,6.55
2022-10-29T04:07:54.465Z,5.60
2022-10-29T04:08:56.990Z,6.38
2022-10-29T04:09:59.748Z,5.93
2022-10-29T04:11:02.565Z,5.72
2022-10-29T04:12:05.193Z,6.00
2022-10-29T04:13:08.123Z,5.25
2022-10-29T04:14:10.547Z,5.95
2022-10-29T04:15:13.032Z,6.18
2022-10-29T04:16:15.640Z,6.40
2022-10-29T04:17:18.136Z,5.85
2022-10-29T04:18:20.584Z,5.60
2022-10-29T04:19:23.130Z,5.80
2022-10-29T04:21:36.705Z,5.57
2022-10-29T04:24:32.507Z,5.57
2022-10-29T04:28:32.883Z,6.47
2022-10-29T04:28:44.703Z,5.30
2022-10-29T04:29:47.466Z,5.05
2022-10-29T04:30:50.188Z,6.00
2022-10-29T04:31:52.742Z,5.22
2022-10-29T04:32:59.761Z,5.55
2022-10-29T04:34:02.653Z,5.72
2022-10-29T04:35:05.729Z,5.50
2022-10-29T04:36:08.495Z,5.47
2022-10-29T04:37:10.881Z,5.65
2022-10-29T04:38:13.436Z,5.10
2022-10-29T04:39:18.364Z,5.20
2022-10-29T04:40:24.600Z,5.97
2022-10-29T04:41:27.115Z,5.43
2022-10-29T04:42:29.670Z,6.20
2022-10-29T04:43:32.200Z,5.55
2022-10-29T04:44:34.645Z,5.93
2022-10-29T04:45:37.113Z,5.22
2022-10-29T04:46:39.583Z,5.03
2022-10-29T04:47:41.980Z,4.90
2022-10-29T04:48:44.395Z,5.93
2022-10-29T04:49:46.883Z,5.60
2022-10-29T04:50:49.624Z,6.28
2022-10-29T04:51:52.361Z,5.28
2022-10-29T04:53:01.400Z,5.28
2022-10-29T04:54:04.174Z,5.38
2022-10-29T04:55:07.319Z,4.72
2022-10-29T04:56:09.706Z,5.18
2022-10-29T04:57:12.280Z,5.57
2022-10-29T04:58:19.568Z,5.80
2022-10-29T04:59:22.143Z,6.32
2022-10-29T05:00:24.729Z,5.03
2022-10-29T05:01:27.313Z,6.40
2022-10-29T05:02:29.947Z,5.55
2022-10-29T05:03:32.983Z,5.38
2022-10-29T05:04:35.566Z,5.25
2022-10-29T05:05:39.130Z,4.85
2022-10-29T05:06:41.582Z,5.55
2022-10-29T05:07:44.144Z,5.65
2022-10-29T05:08:46.716Z,5.60
2022-10-29T05:09:49.275Z,6.18
2022-10-29T05:10:51.646Z,5.25
2022-10-29T05:11:54.284Z,5.18
2022-10-29T05:13:01.679Z,5.32
2022-10-29T05:14:04.331Z,5.55
2022-10-29T05:15:07.364Z,5.57
2022-10-29T05:16:09.793Z,5.30
2022-10-29T05:17:12.371Z,5.13
2022-10-29T05:18:14.982Z,5.28
2022-10-29T05:19:17.364Z,5.53
2022-10-29T05:20:19.913Z,5.88
2022-10-29T05:21:22.314Z,5.05
2022-10-29T05:22:24.773Z,5.90
2022-10-29T05:23:27.403Z,4.90
2022-10-29T05:24:29.921Z,5.10
2022-10-29T05:25:34.201Z,5.82
2022-10-29T05:26:36.682Z,5.78
2022-10-29T05:27:39.099Z,4.85
2022-10-29T05:28:41.616Z,5.35
2022-10-29T05:29:43.983Z,5.15
2022-10-29T05:30:47.762Z,5.47
2022-10-29T05:31:53.502Z,4.97
2022-10-29T05:32:56.309Z,6.07
2022-10-29T05:33:59.146Z,5.70
2022-10-29T05:35:01.724Z,5.05
2022-10-29T05:36:04.693Z,4.57
2022-10-29T05:37:07.062Z,4.90
2022-10-29T05:38:10.831Z,5.35
2022-10-29T05:39:13.297Z,5.35
2022-10-29T05:40:15.880Z,5.70
2022-10-29T05:41:18.435Z,5.50
2022-10-29T05:42:20.984Z,5.20
2022-10-29T05:43:23.476Z,4.97
2022-10-29T05:44:26.012Z,6.90
2022-10-29T05:45:28.804Z,6.20
2022-10-29T05:46:31.395Z,5.05
2022-10-29T05:47:33.862Z,5.15
2022-10-29T05:48:36.324Z,5.07
2022-10-29T05:49:38.830Z,5.18
2022-10-29T05:50:41.343Z,4.93
2022-10-29T05:51:43.823Z,4.78
2022-10-29T05:52:56.204Z,6.45
2022-10-29T05:53:58.921Z,5.93
2022-10-29T05:55:01.510Z,5.70
2022-10-29T05:56:04.186Z,5.68
2022-10-29T05:57:06.580Z,5.97
2022-10-29T05:58:13.570Z,5.53
2022-10-29T05:59:16.100Z,6.43
2022-10-29T06:00:18.585Z,5.35
2022-10-29T06:01:21.184Z,5.25
2022-10-29T06:02:23.852Z,5.03
2022-10-29T06:03:26.822Z,5.78
2022-10-29T06:04:29.421Z,5.72
2022-10-29T06:05:31.990Z,4.78
2022-10-29T06:06:34.605Z,5.28
2022-10-29T06:07:37.168Z,4.70
2022-10-29T06:08:39.737Z,5.18
2022-10-29T06:09:42.313Z,5.10
2022-10-29T06:10:44.903Z,6.05
2022-10-29T06:11:47.347Z,5.47
2022-10-29T06:12:50.161Z,6.25
2022-10-29T06:13:56.090Z,5.40
2022-10-29T06:14:59.027Z,5.30
2022-10-29T06:16:01.916Z,5.63
2022-10-29T06:17:04.532Z,5.40
2022-10-29T06:18:06.981Z,5.20
2022-10-29T06:19:09.431Z,4.60
2022-10-29T06:20:13.501Z,5.03
2022-10-29T06:21:16.045Z,5.35
2022-10-29T06:22:18.543Z,5.28
2022-10-29T06:23:21.042Z,5.20
2022-10-29T06:24:23.482Z,5.65
2022-10-29T06:25:26.894Z,6.20
2022-10-29T06:26:29.383Z,5.35
2022-10-29T06:27:32.057Z,4.75
2022-10-29T06:28:35.103Z,4.88
2022-10-29T06:29:37.568Z,5.55
2022-10-29T06:30:40.095Z,5.07
2022-10-29T06:31:42.475Z,5.00
2022-10-29T06:32:47.233Z,4.45
2022-10-29T06:33:49.769Z,6.05
2022-10-29T06:34:52.205Z,5.43
2022-10-29T06:35:59.403Z,5.50
2022-10-29T06:37:01.858Z,5.50
2022-10-29T06:38:09.411Z,4.90
2022-10-29T06:40:17.795Z,5.47
2022-10-29T06:41:25.278Z,5.15
2022-10-29T06:42:27.797Z,4.78
2022-10-29T06:43:30.417Z,5.30
2022-10-29T06:44:33.037Z,4.78
2022-10-29T06:45:35.679Z,5.30
2022-10-29T06:46:39.034Z,5.05
2022-10-29T06:47:44.759Z,5.65
2022-10-29T06:48:47.356Z,5.30
2022-10-29T06:49:49.743Z,4.80
2022-10-29T06:50:52.731Z,4.97
2022-10-29T06:51:55.157Z,5.20
2022-10-29T06:52:59.454Z,5.57
2022-10-29T06:54:02.276Z,4.63
2022-10-29T06:55:05.814Z,5.13
2022-10-29T06:56:08.256Z,6.05
2022-10-29T06:57:10.873Z,5.80
2022-10-29T06:58:15.407Z,5.38
2022-10-29T06:59:18.019Z,4.80
2022-10-29T07:00:20.584Z,4.30
2022-10-29T07:01:24.592Z,4.90
2022-10-29T07:02:29.157Z,4.57
2022-10-29T07:03:31.735Z,5.30
2022-10-29T07:04:34.127Z,5.07
2022-10-29T07:05:36.683Z,6.05
2022-10-29T07:06:39.299Z,4.72
2022-10-29T07:07:41.828Z,4.93
2022-10-29T07:08:44.342Z,4.72
2022-10-29T07:09:46.963Z,5.75
2022-10-29T07:10:53.879Z,5.20
2022-10-29T07:11:56.555Z,4.97
2022-10-29T07:12:59.616Z,5.68
2022-10-29T07:14:02.276Z,4.93
2022-10-29T07:15:05.336Z,4.65
2022-10-29T07:16:08.010Z,4.95
2022-10-29T07:17:10.444Z,4.75
2022-10-29T07:18:12.946Z,5.43
2022-10-29T07:19:15.430Z,4.85
2022-10-29T07:20:18.838Z,5.38
2022-10-29T07:21:21.305Z,5.35
2022-10-29T07:22:23.762Z,4.97
2022-10-29T07:23:26.258Z,5.20
2022-10-29T07:24:28.960Z,4.65
2022-10-29T07:25:32.592Z,5.28
2022-10-29T07:26:36.169Z,5.47
2022-10-29T07:27:38.772Z,5.40
2022-10-29T07:28:41.536Z,5.95
2022-10-29T07:29:44.064Z,5.78
2022-10-29T07:30:48.351Z,5.63
2022-10-29T07:31:50.839Z,4.72
2022-10-29T07:32:53.299Z,4.53
2022-10-29T07:33:56.928Z,4.55
2022-10-29T07:34:59.382Z,4.88
2022-10-29T07:36:02.080Z,4.70
2022-10-29T07:37:04.503Z,5.65
2022-10-29T07:38:10.816Z,4.70
2022-10-29T07:39:14.072Z,4.70
2022-10-29T07:40:16.756Z,4.40
2022-10-29T07:41:19.271Z,5.20
2022-10-29T07:42:22.118Z,5.07
2022-10-29T07:43:24.642Z,4.95
2022-10-29T07:44:27.121Z,5.18
2022-10-29T07:45:29.619Z,4.80
2022-10-29T07:46:32.257Z,4.85
2022-10-29T07:47:34.796Z,4.90
2022-10-29T07:48:37.243Z,5.07
2022-10-29T07:49:39.787Z,5.10
2022-10-29T07:50:42.678Z,5.05
2022-10-29T07:51:45.244Z,4.93
2022-10-29T07:52:48.219Z,4.38
2022-10-29T07:53:50.743Z,4.80
2022-10-29T07:54:53.223Z,5.28
2022-10-29T07:55:56.098Z,5.07
2022-10-29T07:56:58.586Z,4.47
2022-10-29T07:58:03.255Z,5.13
2022-10-29T07:59:05.840Z,5.22
2022-10-29T08:00:08.896Z,4.80
2022-10-29T08:01:14.783Z,4.80
2022-10-29T08:02:17.345Z,5.47
2022-10-29T08:03:19.925Z,4.68
2022-10-29T08:04:22.560Z,5.03
2022-10-29T08:05:25.898Z,4.95
2022-10-29T08:06:28.294Z,4.57
2022-10-29T08:07:30.865Z,4.57
2022-10-29T08:08:34.991Z,4.55
2022-10-29T08:09:40.264Z,5.13
2022-10-29T08:10:42.724Z,4.47
2022-10-29T08:12:54.633Z,4.80
2022-10-29T08:13:57.293Z,5.00
2022-10-29T08:14:59.766Z,4.85
2022-10-29T08:16:02.302Z,4.32
2022-10-29T08:17:04.757Z,4.40
2022-10-29T08:18:14.692Z,5.05
2022-10-29T08:19:17.192Z,4.07
2022-10-29T08:20:20.553Z,4.93
2022-10-29T08:21:23.738Z,4.22
2022-10-29T08:22:26.314Z,4.90
2022-10-29T08:23:28.803Z,5.00
2022-10-29T08:24:31.510Z,4.97
2022-10-29T08:25:34.204Z,5.22
2022-10-29T08:26:36.665Z,4.50
2022-10-29T08:27:39.265Z,4.85
2022-10-29T08:28:43.002Z,4.80
2022-10-29T08:29:45.603Z,5.07
2022-10-29T08:30:50.408Z,4.85
2022-10-29T08:31:52.776Z,5.68
2022-10-29T08:32:55.582Z,4.82
2022-10-29T08:33:58.379Z,5.07
2022-10-29T08:35:00.874Z,5.25
2022-10-29T08:36:03.245Z,4.70
2022-10-29T08:37:05.723Z,5.78
2022-10-29T08:38:08.811Z,5.07
2022-10-29T08:39:11.240Z,5.70
2022-10-29T08:40:36.760Z,5.20
2022-10-29T08:41:52.110Z,6.00
2022-10-29T08:43:22.661Z,4.95
2022-10-29T08:45:47.367Z,5.03
2022-10-29T08:46:57.606Z,5.00
2022-10-29T08:48:33.700Z,6.45
2022-10-29T08:50:03.983Z,5.03
2022-10-29T08:51:21.697Z,5.38
2022-10-29T08:52:28.054Z,5.85
2022-10-29T08:53:58.662Z,5.15
2022-10-29T08:55:25.466Z,5.55
2022-10-29T08:56:29.666Z,4.85
2022-10-29T08:57:37.101Z,5.30
2022-10-29T08:58:56.222Z,5.60
2022-10-29T09:01:16.099Z,5.30
2022-10-29T09:02:18.800Z,5.47
2022-10-29T09:03:21.720Z,5.20
2022-10-29T09:04:36.117Z,5.95
2022-10-29T09:06:14.262Z,7.78
2022-10-29T09:07:25.629Z,6.43
2022-10-29T09:08:52.321Z,6.10
2022-10-29T09:10:36.390Z,6.15
2022-10-29T09:11:55.933Z,6.65
2022-10-29T09:12:58.860Z,6.00
2022-10-29T09:14:32.653Z,6.22
2022-10-29T09:15:53.317Z,5.47
2022-10-29T09:17:25.070Z,6.20
2022-10-29T09:18:50.825Z,4.85
2022-10-29T09:20:20.046Z,6.18
2022-10-29T09:21:36.172Z,5.43
2022-10-29T09:22:53.694Z,6.20
2022-10-29T09:24:12.352Z,5.07
2022-10-29T09:25:35.501Z,5.45
2022-10-29T09:27:08.127Z,6.60
2022-10-29T09:28:13.156Z,5.93
2022-10-29T09:29:51.280Z,5.88
2022-10-29T09:31:22.690Z,5.45
2022-10-29T09:32:31.727Z,6.28
2022-10-29T09:33:34.359Z,5.80
2022-10-29T09:34:53.181Z,6.38
2022-10-29T09:35:58.541Z,5.80
2022-10-29T09:37:01.095Z,5.38
2022-10-29T09:38:27.537Z,6.65
2022-10-29T09:39:37.631Z,6.55
2022-10-29T09:40:43.027Z,6.88
2022-10-29T09:41:45.792Z,7.65
2022-10-29T09:42:48.438Z,8.20
2022-10-29T09:44:02.128Z,9.75
2022-10-29T09:45:10.425Z,9.25
2022-10-29T09:46:34.621Z,7.25
2022-10-29T09:47:40.169Z,6.68
2022-10-29T09:48:45.410Z,6.78
2022-10-29T09:50:08.963Z,6.03
2022-10-29T09:51:30.234Z,6.60
2022-10-29T09:52:37.459Z,7.10
2022-10-29T09:53:39.992Z,6.93
2022-10-29T09:54:42.348Z,6.38
2022-10-29T09:55:46.363Z,7.00
2022-10-29T09:56:53.313Z,7.18
2022-10-29T09:57:58.681Z,6.72
2022-10-29T09:59:26.335Z,6.53
2022-10-29T10:00:31.173Z,6.97
2022-10-29T10:01:33.713Z,6.82
2022-10-29T10:02:38.981Z,5.93
2022-10-29T10:03:46.904Z,6.32
2022-10-29T10:04:51.379Z,6.78
2022-10-29T10:06:08.261Z,7.05
2022-10-29T10:07:12.677Z,7.20
2022-10-29T10:08:15.323Z,6.70
2022-10-29T10:09:17.631Z,6.30
2022-10-29T10:10:22.594Z,7.50
2022-10-29T10:11:25.505Z,7.72
2022-10-29T10:12:36.579Z,7.32
2022-10-29T10:13:52.880Z,6.95
2022-10-29T10:15:05.712Z,7.50
2022-10-29T10:16:08.306Z,7.15
2022-10-29T10:17:10.910Z,8.02
2022-10-29T10:18:15.878Z,8.10
2022-10-29T10:19:24.012Z,7.20
2022-10-29T10:20:38.798Z,8.30
2022-10-29T10:21:41.374Z,8.50
2022-10-29T10:22:47.510Z,7.00
2022-10-29T10:23:54.657Z,7.43
2022-10-29T10:24:57.186Z,7.38
2022-10-29T10:26:03.755Z,7.80
2022-10-29T10:27:19.796Z,8.20
2022-10-29T10:28:30.950Z,7.88
2022-10-29T10:29:33.565Z,7.95
2022-10-29T10:30:36.066Z,7.85
2022-10-29T10:31:39.687Z,7.70
2022-10-29T10:32:42.410Z,7.93
2022-10-29T10:33:53.782Z,8.75
2022-10-29T10:34:56.303Z,7.55
2022-10-29T10:36:07.113Z,8.30
2022-10-29T10:37:09.540Z,8.00
2022-10-29T10:38:14.971Z,8.65
2022-10-29T10:39:22.239Z,7.85
2022-10-29T10:40:25.337Z,8.13
2022-10-29T10:41:30.981Z,7.60
2022-10-29T10:42:37.278Z,7.18
2022-10-29T10:43:44.141Z,6.90
2022-10-29T10:45:08.876Z,6.93
2022-10-29T10:46:25.876Z,6.78
2022-10-29T10:47:34.469Z,7.25
2022-10-29T10:48:37.125Z,6.68
2022-10-29T10:49:39.899Z,6.60
2022-10-29T10:50:42.418Z,6.05
2022-10-29T10:51:48.910Z,7.05
2022-10-29T10:52:55.002Z,7.20
2022-10-29T10:53:58.884Z,6.53
2022-10-29T10:55:23.150Z,6.13
2022-10-29T10:56:25.708Z,7.75
2022-10-29T10:57:41.552Z,7.43
2022-10-29T10:58:49.339Z,6.88
2022-10-29T11:00:07.575Z,6.50
2022-10-29T11:01:15.982Z,7.10
2022-10-29T11:02:24.895Z,7.07
2022-10-29T11:03:39.304Z,7.00
2022-10-29T11:04:42.552Z,6.68
2022-10-29T11:05:59.994Z,6.55
2022-10-29T11:07:05.695Z,6.72
2022-10-29T11:08:30.217Z,6.57
2022-10-29T11:09:39.310Z,5.88
2022-10-29T11:10:55.283Z,6.45
2022-10-29T11:12:07.177Z,6.55
2022-10-29T11:13:22.853Z,6.38
2022-10-29T11:14:36.760Z,6.35
2022-10-29T11:15:47.864Z,6.22
2022-10-29T11:16:54.002Z,6.00
2022-10-29T11:18:03.697Z,6.00
2022-10-29T11:19:23.284Z,6.10
2022-10-29T11:20:32.809Z,6.25
2022-10-29T11:21:50.631Z,6.00
2022-10-29T11:22:55.129Z,5.60
2022-10-29T11:24:14.263Z,5.90
2022-10-29T11:25:19.775Z,5.60
2022-10-29T11:26:22.172Z,5.72
2022-10-29T11:27:32.820Z,5.68
2022-10-29T11:28:50.436Z,6.28
2022-10-29T11:30:10.177Z,6.03
2022-10-29T11:31:26.595Z,5.93
2022-10-29T11:33:03.194Z,5.43
2022-10-29T11:34:25.742Z,6.05
2022-10-29T11:35:49.706Z,5.47
2022-10-29T11:37:00.869Z,5.50
2022-10-29T11:38:15.925Z,5.57
2022-10-29T11:39:45.703Z,6.57
2022-10-29T11:40:58.714Z,5.47
2022-10-29T11:42:01.805Z,5.70
2022-10-29T11:43:12.266Z,4.63
2022-10-29T11:44:15.921Z,5.18
2022-10-29T11:45:24.911Z,6.00
2022-10-29T11:46:57.922Z,5.60
2022-10-29T11:48:20.647Z,5.30
2022-10-29T11:49:59.181Z,5.88
2022-10-29T11:51:13.090Z,5.25
2022-10-29T11:52:22.305Z,5.25
2022-10-29T11:53:47.742Z,4.88
2022-10-29T11:55:19.820Z,5.50
2022-10-29T11:56:31.441Z,5.28
2022-10-29T11:57:39.710Z,5.10
2022-10-29T11:59:08.200Z,5.38
2022-10-29T12:00:18.273Z,4.88
2022-10-29T12:01:39.272Z,5.03
2022-10-29T12:04:01.675Z,5.68
2022-10-29T12:05:27.398Z,6.25
2022-10-29T12:06:36.313Z,5.72
2022-10-29T12:08:11.176Z,5.65
2022-10-29T12:09:40.930Z,7.28
2022-10-29T12:11:01.702Z,6.82
2022-10-29T12:13:38.972Z,6.05
2022-10-29T12:14:45.374Z,5.82
2022-10-29T12:15:56.166Z,5.68
2022-10-29T12:17:10.871Z,5.47
2022-10-29T12:18:27.859Z,5.50
2022-10-29T12:19:36.107Z,5.70
2022-10-29T12:20:49.913Z,5.43
2022-10-29T12:22:14.160Z,5.90
2022-10-29T12:23:36.768Z,5.63
2022-10-29T12:24:46.871Z,5.28
2022-10-29T12:26:00.625Z,5.55
2022-10-29T12:27:23.935Z,5.32
2022-10-29T12:29:04.175Z,5.85
2022-10-29T12:30:09.295Z,5.50
2022-10-29T12:31:59.830Z,6.50
2022-10-29T12:33:19.179Z,5.95
2022-10-29T12:34:48.813Z,6.60
2022-10-29T12:36:03.412Z,5.90
2022-10-29T12:37:05.912Z,6.60
2022-10-29T12:38:25.714Z,6.53
2022-10-29T12:39:37.715Z,5.15
2022-10-29T12:40:43.340Z,5.90
2022-10-29T12:41:50.528Z,5.22
2022-10-29T12:42:53.856Z,5.57
2022-10-29T12:44:07.959Z,5.45
2022-10-29T12:45:18.950Z,5.10
2022-10-29T12:46:48.724Z,5.40
2022-10-29T12:48:11.998Z,5.65
2022-10-29T12:49:22.781Z,5.28
2022-10-29T12:50:56.175Z,5.07
2022-10-29T12:52:03.440Z,4.88
2022-10-29T12:53:17.696Z,5.57
2022-10-29T12:54:42.125Z,6.43
2022-10-29T12:55:46.800Z,6.30
2022-10-29T12:56:50.596Z,6.15
2022-10-29T12:57:53.178Z,5.78
2022-10-29T12:59:24.863Z,5.57
2022-10-29T13:00:45.784Z,5.03
2022-10-29T13:03:10.884Z,4.60
2022-10-29T13:04:24.264Z,5.78
2022-10-29T13:05:37.284Z,5.10
2022-10-29T13:06:42.630Z,4.43
2022-10-29T13:07:47.746Z,4.90
2022-10-29T13:08:59.984Z,4.65
2022-10-29T13:10:23.790Z,5.72
2022-10-29T13:11:49.621Z,5.15
2022-10-29T13:13:16.231Z,4.65
2022-10-29T13:14:26.488Z,5.72
2022-10-29T13:15:38.786Z,5.68
2022-10-29T13:16:41.419Z,5.40
2022-10-29T13:17:48.416Z,4.88
2022-10-29T13:19:05.604Z,5.40
2022-10-29T13:20:27.987Z,7.65
2022-10-29T13:21:59.062Z,7.30
2022-10-29T13:23:04.085Z,7.22
2022-10-29T13:24:16.801Z,5.90
2022-10-29T13:25:36.934Z,7.90
2022-10-29T13:27:01.793Z,7.55
2022-10-29T13:28:10.231Z,7.43
2022-10-29T13:29:12.622Z,7.78
2022-10-29T13:30:25.549Z,7.82
2022-10-29T13:31:28.237Z,8.55
2022-10-29T13:32:32.924Z,6.70
2022-10-29T13:33:38.314Z,6.38
2022-10-29T13:34:52.797Z,6.43
2022-10-29T13:36:16.893Z,6.53
2022-10-29T13:37:49.785Z,7.90
2022-10-29T13:39:05.909Z,6.75
2022-10-29T13:40:30.895Z,6.30
2022-10-29T13:41:43.164Z,5.97
2022-10-29T13:42:46.430Z,5.20
2022-10-29T13:44:11.816Z,6.00
2022-10-29T13:45:14.571Z,5.07
2022-10-29T13:46:24.489Z,4.97
2022-10-29T13:47:26.978Z,4.80
2022-10-29T13:48:32.406Z,4.88
2022-10-29T13:49:39.025Z,5.65
2022-10-29T13:50:42.645Z,5.43
2022-10-29T13:51:57.586Z,4.68
2022-10-29T13:53:01.662Z,5.03
2022-10-29T13:54:17.104Z,4.40
2022-10-29T13:55:20.603Z,5.38
2022-10-29T13:56:33.919Z,4.70
2022-10-29T13:57:41.789Z,5.32
2022-10-29T13:58:45.113Z,5.35
2022-10-29T13:59:53.711Z,4.97
2022-10-29T14:00:57.518Z,4.70
2022-10-29T14:02:30.647Z,5.03
2022-10-29T14:03:59.751Z,5.20
2022-10-29T14:05:14.036Z,5.10
2022-10-29T14:06:22.507Z,4.80
2022-10-29T14:07:31.208Z,4.75
2022-10-29T14:08:51.037Z,4.90
2022-10-29T14:09:56.756Z,5.45
2022-10-29T14:11:00.238Z,5.30
2022-10-29T14:12:04.992Z,6.47
2022-10-29T14:13:23.531Z,6.15
2022-10-29T14:14:34.817Z,5.80
2022-10-29T14:15:39.791Z,5.63
2022-10-29T14:16:42.292Z,6.03
2022-10-29T14:17:44.899Z,5.78
2022-10-29T14:18:50.417Z,6.30
2022-10-29T14:19:52.951Z,6.43
2022-10-29T14:20:56.692Z,5.97
2022-10-29T14:21:59.378Z,5.30
2022-10-29T14:23:07.856Z,6.82
2022-10-29T14:24:11.483Z,6.20
2022-10-29T14:25:29.290Z,5.97
2022-10-29T14:26:36.729Z,6.60
2022-10-29T14:27:39.171Z,7.03
2022-10-29T14:28:41.804Z,6.45
2022-10-29T14:29:44.820Z,6.72
2022-10-29T14:30:48.393Z,6.00
2022-10-29T14:32:18.747Z,6.00
2022-10-29T14:33:26.311Z,5.85
2022-10-29T14:34:28.816Z,5.63
2022-10-29T14:35:31.335Z,6.63
2022-10-29T14:36:39.389Z,6.20
2022-10-29T14:37:42.811Z,6.18
2022-10-29T14:38:49.989Z,6.30
2022-10-29T14:39:59.050Z,5.80
2022-10-29T14:41:02.276Z,6.15
2022-10-29T14:42:08.017Z,5.25
2022-10-29T14:43:24.429Z,5.18
2022-10-29T14:44:32.301Z,5.72
2022-10-29T14:45:34.795Z,5.80
2022-10-29T14:46:38.597Z,5.35
2022-10-29T14:47:41.185Z,5.15
2022-10-29T14:48:55.132Z,5.95
2022-10-29T14:50:02.849Z,6.35
2022-10-29T14:51:05.672Z,5.60
2022-10-29T14:52:24.359Z,5.40
2022-10-29T14:53:32.088Z,6.00
2022-10-29T14:54:36.436Z,6.10
2022-10-29T14:55:42.174Z,6.50
2022-10-29T14:56:47.884Z,5.97
2022-10-29T14:58:11.975Z,6.53
2022-10-29T14:59:19.989Z,5.88
2022-10-29T15:00:28.049Z,6.30
2022-10-29T15:01:30.830Z,6.18
2022-10-29T15:02:38.693Z,6.55
2022-10-29T15:03:42.517Z,7.03
2022-10-29T15:05:02.981Z,6.75
2022-10-29T15:06:17.779Z,5.82
2022-10-29T15:07:21.750Z,6.35
2022-10-29T15:08:29.059Z,7.28
2022-10-29T15:09:31.583Z,7.97
2022-10-29T15:10:51.648Z,7.47
2022-10-29T15:12:08.754Z,6.20
2022-10-29T15:13:31.775Z,6.93
2022-10-29T15:14:37.560Z,6.75
2022-10-29T15:15:40.297Z,6.40
2022-10-29T15:16:46.860Z,6.43
2022-10-29T15:18:05.568Z,7.25
2022-10-29T15:19:14.105Z,6.57